Lankin, North Dakota
Current Conditions -  °F | °C
As of 8:55 AM on Wednesday 22 Oct 2014 (Local Time) from KGAF Reporting Station
Clear Clear  
Wind Chill: 52°   Ceiling: Unl
Heat Index: 52°   Visibility: 10mi
Dew Point: 41°   Wind: 17mph
Humidity: 67%   Direction: 170°S
Pressure: 29.79"   Gusts: 24mph
Location:  48.31°N, 97.93°W
Report Text: KGAF 221355Z AUTO 17015G21KT 10SM CLR 11/05 A2979 RMK AO2
Loading
Personal Weather Stations






























Interactive Weather Map
Tropical Storm Tracking
New forecast layout! Learn more

10-Day Weather Forecast

Advertisements
Track Severe Weather on mobile